Hauptseite
METAR-TAF:

METAR-TAF

Flughäfen :

Militärflugplatz Istrana

Treviso, Italien

Breite: 45-41N, Länge: 012-06E, Höhe: 45 m

Beobachtung

Neuester Wetterbericht von vor 1 Stunde und 7 Minuten, um 17:55 UTC
Wind 2 kt aus Süd
Temperatur 15°C
Luftfeuchtigkeit 67%
Luftdruck 1018 hPa
Sichtweite 10 km oder mehr
keine Wolken unter 1500 m und keine Kumulonimbus oder Gewitterwolken

METAR: LIPS 231755Z 17002KT CAVOK 15/09 Q1018 RMK BKN BKN200 VIS MIN 9999 WIND THR26 00000KT WIND THR08 00000KT BLU

Zeit: 21:02 (19:02 UTC)

Prognose

Neuester Wetterbericht von vor 2 Stunden und 2 Minuten, um 17:00 UTC
Gültige Prognose vom 23 um 18 UTC bis 24 um 03 UTC
Wind 3 kt aus unterschiedlichen Richtungen
Sichtweite 10 km oder mehr
Durchbrochene Bewölkung in der Höhe von 9000 ft
Übergehend zu
vom 24 um 00 UTC bis 24 um 02 UTC
Sichtweite: 5000 m
feuchter Dunst

TAF: LIPS 231700Z 2318/2403 VRB03KT 9999 BKN090 BECMG 2400/2402 5000 BR NSC

Wetterbeobachtungen und Prognosen von mehr als 4000 Flughäfen (METAR und TAF Bericht).

Die verfügbaren Stationen werden durch gelbe und rote Markierungen auf der Karte dargestellt.

Führen Sie die Maus auf sie, um den Namen der Station zu sehen.

Darauf klicken, um die Beobachtung von Wetterbeobachtungen und Prognosen zu sehen.

Um die Karte zu ändern : klicken Sie auf den grünen Tasten mit einem schwarzen Kreuz Zum Vergrößern, auf den grünen Button mit einem Gedankenstrich zu verkleinern, oder auf die grünen Pfeile für benachbarte Karten.


METAR-TAF: